Time;durP1;ratioP1;P1;durP2;ratioP2;P2;SDS_P1;SDS_P2;PMS_P1;PMS_P2;Temp;Humidity;BMP_temperature;BMP_pressure;BME280_temperature;BME280_humidity;BME280_pressure;Samples;Min_cycle;Max_cycle;Signal;HPM_P1;HPM_P2
2023/12/19 00:00:11;;;;;;;11.32;9.07;;;6.70;1.00;;;;;;5190217;27;20452;-76
2023/12/19 00:02:40;;;;;;;9.63;8.57;;;6.70;1.00;;;;;;5188049;27;20235;-76
2023/12/19 00:05:09;;;;;;;9.40;8.27;;;6.70;1.00;;;;;;5188869;27;20277;-75
2023/12/19 00:07:36;;;;;;;8.60;7.10;;;6.70;1.00;;;;;;5189087;27;20990;-75
2023/12/19 00:10:04;;;;;;;8.40;7.63;;;6.70;1.00;;;;;;5173056;27;20441;-76
2023/12/19 00:12:33;;;;;;;8.68;7.57;;;6.70;1.00;;;;;;5193095;27;20240;-76
2023/12/19 00:15:02;;;;;;;8.15;6.88;;;6.70;1.00;;;;;;5188982;27;21016;-76
2023/12/19 00:17:29;;;;;;;9.68;7.32;;;6.70;1.00;;;;;;5189641;27;20240;-77
2023/12/19 00:19:57;;;;;;;8.55;7.65;;;6.70;1.00;;;;;;5188875;27;20234;-77
2023/12/19 00:22:25;;;;;;;7.95;7.15;;;6.70;1.00;;;;;;5181557;27;20243;-77
2023/12/19 00:24:52;;;;;;;7.33;6.57;;;6.70;1.00;;;;;;5189092;27;20228;-76
2023/12/19 00:27:19;;;;;;;8.60;7.27;;;6.70;1.00;;;;;;5191126;27;20461;-76
2023/12/19 00:29:46;;;;;;;8.55;7.35;;;6.70;1.00;;;;;;5191154;27;20492;-76
2023/12/19 00:32:14;;;;;;;7.88;7.07;;;6.70;1.00;;;;;;5189418;27;21039;-76
2023/12/19 00:34:41;;;;;;;7.33;6.63;;;6.70;1.00;;;;;;5186556;27;20378;-76
2023/12/19 00:37:09;;;;;;;7.47;6.60;;;6.70;1.00;;;;;;5189923;27;20476;-76
2023/12/19 00:39:37;;;;;;;7.60;6.90;;;6.60;1.00;;;;;;5188376;27;20529;-77
2023/12/19 00:42:05;;;;;;;8.18;6.72;;;6.70;1.00;;;;;;5183400;27;20355;-77
2023/12/19 00:44:36;;;;;;;8.40;6.60;;;6.70;1.00;;;;;;5192239;27;20239;-77
2023/12/19 00:47:03;;;;;;;7.47;6.80;;;6.70;1.00;;;;;;5189968;27;20489;-77
2023/12/19 00:49:30;;;;;;;6.53;5.85;;;6.80;1.00;;;;;;5188670;27;21002;-77
2023/12/19 00:51:57;;;;;;;6.70;6.10;;;6.70;1.00;;;;;;5190180;27;20243;-77
2023/12/19 00:54:27;;;;;;;7.22;6.47;;;6.80;1.00;;;;;;5185281;27;20318;-75
2023/12/19 00:56:55;;;;;;;7.13;6.43;;;6.80;1.00;;;;;;5188171;27;20235;-76
2023/12/19 00:59:23;;;;;;;7.30;6.43;;;6.80;1.00;;;;;;5191091;27;20457;-76
2023/12/19 01:01:50;;;;;;;7.55;6.10;;;6.90;1.00;;;;;;5190002;27;20253;-76
2023/12/19 01:04:19;;;;;;;8.00;6.57;;;6.90;1.00;;;;;;5188251;27;20395;-76
2023/12/19 01:06:46;;;;;;;8.67;7.10;;;6.90;1.00;;;;;;5187822;27;20502;-77
2023/12/19 01:09:15;;;;;;;7.30;6.53;;;6.90;1.00;;;;;;5186613;27;20431;-76
2023/12/19 01:11:43;;;;;;;6.87;6.23;;;6.90;1.00;;;;;;5186762;27;20234;-76
2023/12/19 01:14:10;;;;;;;8.17;6.50;;;6.90;1.00;;;;;;5186002;27;20451;-76
2023/12/19 01:16:37;;;;;;;7.22;6.53;;;6.90;1.00;;;;;;5187830;27;20540;-76
2023/12/19 01:19:09;;;;;;;7.07;5.95;;;6.90;1.00;;;;;;5188533;27;20235;-75
2023/12/19 01:21:36;;;;;;;7.07;5.93;;;7.00;1.00;;;;;;5189623;27;20240;-76
2023/12/19 01:24:05;;;;;;;7.07;6.43;;;7.10;1.00;;;;;;5186312;27;20233;-76
2023/12/19 01:26:33;;;;;;;7.30;5.83;;;7.10;1.00;;;;;;5188955;27;20485;-75
2023/12/19 01:29:02;;;;;;;8.35;6.38;;;7.10;1.00;;;;;;5189616;27;20470;-75
2023/12/19 01:31:29;;;;;;;8.10;7.10;;;7.10;1.00;;;;;;5188846;27;20245;-75
2023/12/19 01:33:57;;;;;;;6.40;5.77;;;7.10;1.00;;;;;;5189390;27;20458;-75
2023/12/19 01:36:25;;;;;;;7.30;6.60;;;7.20;1.00;;;;;;5188009;27;20460;-76
2023/12/19 01:38:52;;;;;;;7.72;6.95;;;7.20;1.00;;;;;;5162245;27;20864;-75
2023/12/19 01:41:21;;;;;;;7.53;6.83;;;7.30;1.00;;;;;;5167226;27;20262;-75
2023/12/19 01:43:50;;;;;;;10.70;6.07;;;7.30;1.00;;;;;;5189266;27;21321;-75
2023/12/19 01:46:18;;;;;;;8.57;5.57;;;7.40;1.00;;;;;;5188302;27;20493;-76
2023/12/19 01:48:46;;;;;;;6.53;5.80;;;7.40;1.00;;;;;;5186840;27;20557;-76
2023/12/19 01:51:14;;;;;;;7.20;6.00;;;7.40;1.00;;;;;;5185987;27;20457;-77
2023/12/19 01:53:44;;;;;;;8.27;5.90;;;7.40;1.00;;;;;;5185777;27;20464;-76
2023/12/19 01:56:14;;;;;;;7.23;6.60;;;7.40;1.00;;;;;;5187785;27;20492;-75
2023/12/19 01:58:41;;;;;;;7.30;6.60;;;7.30;1.00;;;;;;5186119;27;20461;-76
2023/12/19 02:01:08;;;;;;;6.90;6.30;;;7.30;1.00;;;;;;5188981;27;20477;-76
2023/12/19 02:03:37;;;;;;;6.27;5.70;;;7.30;1.00;;;;;;5188784;27;20553;-76
2023/12/19 02:06:06;;;;;;;6.70;6.10;;;7.40;1.00;;;;;;5183720;27;20604;-76
2023/12/19 02:08:34;;;;;;;8.43;5.93;;;7.40;1.00;;;;;;5187627;27;20450;-76
2023/12/19 02:11:02;;;;;;;6.37;5.30;;;7.40;1.00;;;;;;5186977;27;21284;-75
2023/12/19 02:13:29;;;;;;;6.07;5.47;;;7.40;1.00;;;;;;5187755;27;20458;-75
2023/12/19 02:15:56;;;;;;;6.20;5.60;;;7.30;1.00;;;;;;5186542;27;20514;-75
2023/12/19 02:18:23;;;;;;;8.03;6.43;;;7.30;1.00;;;;;;5186261;27;20484;-75
2023/12/19 02:20:53;;;;;;;6.23;5.63;;;7.40;1.00;;;;;;5184489;27;20547;-75
2023/12/19 02:23:23;;;;;;;6.37;5.77;;;7.30;1.00;;;;;;5166548;27;20470;-75
2023/12/19 02:25:53;;;;;;;6.90;5.80;;;7.30;1.00;;;;;;5184311;27;21210;-75
2023/12/19 02:28:20;;;;;;;5.88;5.35;;;7.30;1.00;;;;;;5189165;27;21301;-75
2023/12/19 02:30:47;;;;;;;6.40;5.80;;;7.30;1.00;;;;;;5187063;27;20319;-75
2023/12/19 02:33:14;;;;;;;7.37;6.20;;;7.30;1.00;;;;;;5186208;27;20490;-75
2023/12/19 02:35:41;;;;;;;7.40;6.10;;;7.40;1.00;;;;;;5186033;27;20481;-75
2023/12/19 02:38:09;;;;;;;5.90;5.40;;;7.30;1.00;;;;;;5190350;27;20548;-77
2023/12/19 02:40:38;;;;;;;8.10;5.90;;;7.40;1.00;;;;;;5185655;27;20456;-75
2023/12/19 02:43:05;;;;;;;6.93;5.33;;;7.30;1.00;;;;;;5188913;27;20443;-75
2023/12/19 02:45:34;;;;;;;6.30;5.70;;;7.40;1.00;;;;;;5167629;27;20504;-75
2023/12/19 02:48:01;;;;;;;7.13;6.43;;;7.40;1.00;;;;;;5187584;27;20479;-76
2023/12/19 02:50:28;;;;;;;6.57;5.63;;;7.40;1.00;;;;;;5187900;27;20312;-76
2023/12/19 02:52:56;;;;;;;6.90;5.87;;;7.40;1.00;;;;;;5169615;27;20978;-75
2023/12/19 02:55:23;;;;;;;6.87;4.97;;;7.40;1.00;;;;;;5188452;27;20565;-75
2023/12/19 02:57:51;;;;;;;5.28;4.57;;;7.40;1.00;;;;;;5187716;27;20493;-75
2023/12/19 03:00:19;;;;;;;6.10;5.50;;;7.50;1.00;;;;;;5190005;27;20234;-75
2023/12/19 03:02:46;;;;;;;6.13;5.53;;;7.40;1.00;;;;;;5182878;27;20525;-75
2023/12/19 03:05:13;;;;;;;8.60;6.90;;;7.40;1.00;;;;;;5189969;27;20504;-75
2023/12/19 03:07:40;;;;;;;6.30;5.50;;;7.50;1.00;;;;;;5189189;27;20477;-76
2023/12/19 03:10:08;;;;;;;6.70;6.10;;;7.50;1.00;;;;;;5191454;27;21121;-75
2023/12/19 03:12:36;;;;;;;6.47;5.93;;;7.50;1.00;;;;;;5189345;27;20453;-75
2023/12/19 03:15:05;;;;;;;7.77;6.50;;;7.50;1.00;;;;;;5190919;27;20463;-75
2023/12/19 03:17:32;;;;;;;7.77;6.97;;;7.50;1.00;;;;;;5191952;27;20509;-76
2023/12/19 03:19:59;;;;;;;8.90;7.27;;;7.50;1.00;;;;;;5192661;27;20950;-75
2023/12/19 03:22:27;;;;;;;7.33;6.70;;;7.60;1.00;;;;;;5191373;27;20457;-75
2023/12/19 03:24:56;;;;;;;6.60;6.00;;;7.60;1.00;;;;;;5191527;27;21307;-77
2023/12/19 03:27:23;;;;;;;7.63;6.93;;;7.60;1.00;;;;;;5194129;27;20531;-75
2023/12/19 03:29:49;;;;;;;7.63;6.87;;;7.60;1.00;;;;;;5189737;27;20953;-77
2023/12/19 03:32:19;;;;;;;9.53;6.70;;;7.70;1.00;;;;;;5194834;27;20495;-77
2023/12/19 03:34:46;;;;;;;9.73;6.43;;;7.70;1.00;;;;;;5189037;27;20480;-77
2023/12/19 03:37:13;;;;;;;9.60;7.57;;;7.70;1.00;;;;;;5192074;27;20454;-76
2023/12/19 03:39:40;;;;;;;8.23;7.43;;;7.70;1.00;;;;;;5189031;27;20453;-76
2023/12/19 03:42:07;;;;;;;7.53;6.57;;;7.70;1.00;;;;;;5189541;27;20511;-76
2023/12/19 03:44:34;;;;;;;8.90;8.10;;;7.70;1.00;;;;;;5195298;27;20464;-77
2023/12/19 03:47:01;;;;;;;8.00;7.20;;;7.70;1.00;;;;;;5188081;27;20472;-77
2023/12/19 03:49:29;;;;;;;9.13;8.23;;;7.70;1.00;;;;;;5190501;27;20552;-78
2023/12/19 03:51:56;;;;;;;10.23;7.57;;;7.80;1.00;;;;;;5189729;27;20486;-77
2023/12/19 03:54:24;;;;;;;8.60;7.80;;;7.80;1.00;;;;;;5188984;27;20478;-77
2023/12/19 03:56:53;;;;;;;9.70;8.40;;;7.80;1.00;;;;;;5190035;27;20538;-77
2023/12/19 03:59:20;;;;;;;11.70;9.20;;;7.80;1.00;;;;;;5186810;27;20466;-77
2023/12/19 04:01:48;;;;;;;9.07;7.93;;;7.90;1.00;;;;;;5189317;27;20474;-77
2023/12/19 04:04:17;;;;;;;7.90;7.10;;;7.90;1.00;;;;;;5184012;27;20986;-77
2023/12/19 04:06:45;;;;;;;10.20;7.53;;;7.90;1.00;;;;;;5186688;27;20458;-78
2023/12/19 04:09:13;;;;;;;8.00;7.20;;;8.00;1.00;;;;;;5186654;27;20503;-77
2023/12/19 04:11:46;;;;;;;10.87;6.90;;;8.00;1.00;;;;;;5188812;27;20542;-77
2023/12/19 04:14:14;;;;;;;8.00;7.20;;;8.00;1.00;;;;;;5191222;27;20468;-77
2023/12/19 04:16:44;;;;;;;9.03;6.97;;;8.00;1.00;;;;;;5186879;27;20538;-76
2023/12/19 04:19:11;;;;;;;7.50;6.80;;;8.10;1.00;;;;;;5191732;27;20585;-78
2023/12/19 04:21:40;;;;;;;7.13;6.43;;;8.10;1.00;;;;;;5171852;27;20439;-78
2023/12/19 04:24:10;;;;;;;8.17;6.60;;;8.00;1.00;;;;;;5190600;27;20486;-78
2023/12/19 04:26:37;;;;;;;8.37;7.57;;;8.10;1.00;;;;;;5187826;27;20495;-77
2023/12/19 04:29:04;;;;;;;9.30;8.40;;;8.10;1.00;;;;;;5168568;27;20439;-78
2023/12/19 04:31:33;;;;;;;9.43;7.90;;;8.10;1.00;;;;;;5191515;27;20457;-77
2023/12/19 04:34:00;;;;;;;10.77;8.30;;;8.10;1.00;;;;;;5186542;27;20474;-77
2023/12/19 04:36:27;;;;;;;10.60;9.57;;;8.10;1.00;;;;;;5187370;27;20446;-77
2023/12/19 04:38:55;;;;;;;15.70;9.53;;;8.10;1.00;;;;;;5190786;27;20447;-77
2023/12/19 04:41:23;;;;;;;9.47;8.47;;;8.10;1.00;;;;;;5189508;27;20466;-78
2023/12/19 04:43:51;;;;;;;8.70;7.90;;;8.20;1.00;;;;;;5188505;27;20454;-78
2023/12/19 04:46:18;;;;;;;10.87;8.20;;;8.20;1.00;;;;;;5189603;27;20450;-77
2023/12/19 04:48:46;;;;;;;10.47;7.50;;;8.20;1.00;;;;;;5168202;27;20465;-78
2023/12/19 04:51:18;;;;;;;9.40;8.03;;;8.20;1.00;;;;;;5187523;27;20462;-78
2023/12/19 04:53:45;;;;;;;8.77;7.90;;;8.20;1.00;;;;;;5189309;27;20483;-78
2023/12/19 04:56:21;;;;;;;8.77;7.90;;;8.20;1.00;;;;;;5187747;27;20526;-77
2023/12/19 04:58:51;;;;;;;9.63;8.73;;;8.20;1.00;;;;;;5188280;27;20550;-77
2023/12/19 05:01:18;;;;;;;10.87;8.60;;;8.10;1.00;;;;;;5188481;27;20515;-78
2023/12/19 05:03:45;;;;;;;8.73;7.83;;;8.10;1.00;;;;;;5181824;27;20494;-77
2023/12/19 05:06:16;;;;;;;10.67;9.13;;;8.10;1.00;;;;;;5186551;27;20555;-77
2023/12/19 05:08:46;;;;;;;13.30;9.57;;;8.00;1.00;;;;;;5182986;27;20446;-78
2023/12/19 05:11:13;;;;;;;8.30;7.50;;;8.10;1.00;;;;;;5189228;27;20565;-78
2023/12/19 05:13:40;;;;;;;9.40;8.07;;;8.10;1.00;;;;;;5185944;27;20474;-79
2023/12/19 05:16:13;;;;;;;8.73;7.93;;;8.10;1.00;;;;;;5189544;27;20905;-79
2023/12/19 05:18:41;;;;;;;8.13;7.30;;;8.00;1.00;;;;;;5188792;27;20541;-79
2023/12/19 05:21:08;;;;;;;11.30;7.40;;;8.10;1.00;;;;;;5185675;27;20402;-79
2023/12/19 05:23:36;;;;;;;9.10;7.97;;;8.10;1.00;;;;;;5187461;27;20470;-76
2023/12/19 05:26:03;;;;;;;9.40;7.90;;;8.10;1.00;;;;;;5184767;27;20977;-76
2023/12/19 05:28:31;;;;;;;6.97;6.37;;;8.10;1.00;;;;;;5190501;27;20485;-77
2023/12/19 05:30:58;;;;;;;7.57;6.70;;;8.10;1.00;;;;;;5187994;27;21321;-76
2023/12/19 05:33:28;;;;;;;9.03;7.23;;;8.10;1.00;;;;;;5189383;27;20462;-75
2023/12/19 05:35:55;;;;;;;7.50;6.50;;;8.10;1.00;;;;;;5188974;27;20956;-76
2023/12/19 05:38:22;;;;;;;7.00;6.40;;;8.00;1.00;;;;;;5180727;27;20457;-76
2023/12/19 05:40:53;;;;;;;7.87;6.67;;;8.00;1.00;;;;;;5190607;27;20985;-77
2023/12/19 05:43:20;;;;;;;9.03;7.00;;;7.90;1.00;;;;;;5167094;27;20541;-76
2023/12/19 05:45:47;;;;;;;8.90;7.00;;;7.90;1.00;;;;;;5191106;27;20443;-76
2023/12/19 05:48:14;;;;;;;8.60;6.70;;;7.90;1.00;;;;;;5191278;27;20511;-75
2023/12/19 05:50:43;;;;;;;7.87;6.13;;;7.80;1.00;;;;;;5187505;27;20529;-76
2023/12/19 05:53:10;;;;;;;7.43;6.20;;;7.90;1.00;;;;;;5190855;27;20465;-74
2023/12/19 05:55:37;;;;;;;7.33;6.63;;;7.90;1.00;;;;;;5192300;27;20485;-77
2023/12/19 05:58:04;;;;;;;9.00;7.97;;;7.90;1.00;;;;;;5189819;27;20461;-78
2023/12/19 06:00:31;;;;;;;8.40;6.30;;;8.00;1.00;;;;;;5182279;27;20494;-78
2023/12/19 06:02:58;;;;;;;17.80;7.90;;;8.00;1.00;;;;;;5189703;27;20462;-79
2023/12/19 06:05:25;;;;;;;8.20;7.40;;;8.10;1.00;;;;;;5188131;27;20474;-79
2023/12/19 06:07:54;;;;;;;9.93;6.87;;;8.00;1.00;;;;;;5188376;27;20450;-78
2023/12/19 06:10:21;;;;;;;8.63;7.20;;;8.00;1.00;;;;;;5189706;27;21016;-79
2023/12/19 06:12:48;;;;;;;10.87;8.20;;;8.00;1.00;;;;;;5189231;27;20454;-77
2023/12/19 06:15:15;;;;;;;8.83;6.87;;;8.00;1.00;;;;;;5188874;27;20448;-77
2023/12/19 06:17:43;;;;;;;9.70;7.03;;;8.00;1.00;;;;;;5185227;27;20506;-77
2023/12/19 06:20:11;;;;;;;9.47;7.80;;;8.00;1.00;;;;;;5163578;27;20978;-77
2023/12/19 06:22:38;;;;;;;22.73;17.70;;;8.00;1.00;;;;;;5187564;27;20505;-76
2023/12/19 06:25:07;;;;;;;7.93;6.57;;;8.00;1.00;;;;;;5185143;27;21248;-77
2023/12/19 06:27:35;;;;;;;9.00;7.33;;;7.90;1.00;;;;;;5186230;27;20474;-77
2023/12/19 06:30:03;;;;;;;7.83;6.80;;;7.90;1.00;;;;;;5183150;27;21286;-77
2023/12/19 06:32:31;;;;;;;7.93;6.97;;;7.90;1.00;;;;;;5185844;27;20470;-77
2023/12/19 06:35:00;;;;;;;7.93;7.23;;;7.90;1.00;;;;;;5167028;27;20462;-79
2023/12/19 06:37:28;;;;;;;7.90;6.43;;;7.90;1.00;;;;;;5187862;27;20457;-76
2023/12/19 06:39:58;;;;;;;9.93;7.73;;;8.00;1.00;;;;;;5183781;27;20461;-76
2023/12/19 06:42:27;;;;;;;8.10;6.70;;;8.00;1.00;;;;;;5188717;27;21338;-77
2023/12/19 06:44:54;;;;;;;9.13;7.37;;;8.00;1.00;;;;;;5191281;27;20458;-77
2023/12/19 06:47:21;;;;;;;10.47;7.37;;;7.90;1.00;;;;;;5192131;27;20462;-77
2023/12/19 06:49:49;;;;;;;8.53;7.50;;;8.00;1.00;;;;;;5187825;27;20504;-77
2023/12/19 06:52:17;;;;;;;7.83;7.10;;;8.00;1.00;;;;;;5191748;27;20471;-76
2023/12/19 06:54:46;;;;;;;14.03;8.40;;;8.00;1.00;;;;;;5154373;27;20458;-77
2023/12/19 06:57:13;;;;;;;7.97;6.77;;;8.00;1.00;;;;;;5189329;27;20453;-78
2023/12/19 06:59:41;;;;;;;7.77;6.97;;;8.00;1.00;;;;;;5194329;27;20454;-79
2023/12/19 07:02:09;;;;;;;8.73;7.30;;;8.00;1.00;;;;;;5189379;27;21181;-78
2023/12/19 07:04:35;;;;;;;8.60;7.57;;;8.10;1.00;;;;;;5193152;27;20504;-79
2023/12/19 07:07:02;;;;;;;8.70;7.07;;;8.10;1.00;;;;;;5188857;27;20617;-77
2023/12/19 07:09:30;;;;;;;8.10;7.30;;;8.20;1.00;;;;;;5189765;27;20541;-78
2023/12/19 07:11:58;;;;;;;9.67;7.70;;;8.20;1.00;;;;;;5193580;27;20989;-79
2023/12/19 07:14:28;;;;;;;8.97;7.83;;;8.20;1.00;;;;;;5188205;27;20466;-79
2023/12/19 07:17:01;;;;;;;9.10;7.57;;;8.10;1.00;;;;;;5194031;27;20544;-79
2023/12/19 07:19:29;;;;;;;9.13;7.83;;;8.10;1.00;;;;;;5190339;27;20450;-79
2023/12/19 07:21:58;;;;;;;14.80;9.90;;;8.10;1.00;;;;;;5191213;27;20523;-79
2023/12/19 07:24:25;;;;;;;13.00;8.10;;;8.10;1.00;;;;;;5192914;27;21214;-78
2023/12/19 07:26:56;;;;;;;16.63;8.17;;;8.10;1.00;;;;;;5174742;27;20950;-78
2023/12/19 07:29:28;;;;;;;14.10;8.90;;;8.20;1.00;;;;;;5196908;27;20414;-78
2023/12/19 07:31:58;;;;;;;9.17;8.10;;;8.20;1.00;;;;;;5191147;27;20473;-79
2023/12/19 07:34:25;;;;;;;9.30;8.20;;;8.20;1.00;;;;;;5192406;27;20526;-79
2023/12/19 07:36:55;;;;;;;13.50;9.00;;;8.20;1.00;;;;;;5194780;27;20469;-78
2023/12/19 07:39:24;;;;;;;12.63;9.03;;;8.30;1.00;;;;;;5190023;27;20529;-78
2023/12/19 07:41:52;;;;;;;9.03;8.23;;;8.30;1.00;;;;;;5182417;27;20463;-78
2023/12/19 07:44:23;;;;;;;8.50;6.97;;;8.30;1.00;;;;;;5182490;27;20450;-79
2023/12/19 07:46:50;;;;;;;9.40;8.50;;;8.20;1.00;;;;;;5194195;27;20462;-79
2023/12/19 07:49:26;;;;;;;9.20;8.40;;;8.20;1.00;;;;;;5193130;27;20462;-79
2023/12/19 07:51:54;;;;;;;10.03;8.70;;;8.10;1.00;;;;;;5180976;27;20465;-76
2023/12/19 07:54:21;;;;;;;9.13;8.23;;;8.00;1.00;;;;;;5179516;27;21047;-80
2023/12/19 07:56:48;;;;;;;12.60;8.70;;;7.80;1.00;;;;;;5196441;27;20453;-80
2023/12/19 07:59:16;;;;;;;9.20;8.30;;;7.80;1.00;;;;;;5182183;27;20576;-80
2023/12/19 08:01:53;;;;;;;9.23;8.20;;;7.70;1.00;;;;;;5195565;27;20487;-78
2023/12/19 08:04:21;;;;;;;10.10;8.93;;;7.70;1.00;;;;;;5192433;27;20471;-79
2023/12/19 08:06:49;;;;;;;13.40;8.33;;;7.70;1.00;;;;;;5192194;27;20498;-78
2023/12/19 08:09:16;;;;;;;10.47;9.07;;;7.70;1.00;;;;;;5189511;27;20465;-78
2023/12/19 08:11:44;;;;;;;12.20;9.40;;;7.60;1.00;;;;;;5194984;27;20464;-78
2023/12/19 08:14:12;;;;;;;11.47;8.77;;;7.70;1.00;;;;;;5192846;27;20454;-80
2023/12/19 08:16:41;;;;;;;10.10;8.50;;;7.50;1.00;;;;;;5190942;27;20445;-76
2023/12/19 08:19:08;;;;;;;9.97;8.97;;;7.60;1.00;;;;;;5174306;27;20461;-77
2023/12/19 08:21:52;;;;;;;10.87;8.80;;;7.50;1.00;;;;;;5190341;27;20921;-76
2023/12/19 08:24:21;;;;;;;8.73;7.85;;;7.50;1.00;;;;;;5190505;27;20442;-81
2023/12/19 08:26:53;;;;;;;9.70;8.70;;;7.40;1.00;;;;;;5193888;27;20317;-80
2023/12/19 08:29:22;;;;;;;11.57;9.33;;;7.40;1.00;;;;;;5190829;27;20948;-80
2023/12/19 08:31:49;;;;;;;11.17;9.87;;;7.40;1.00;;;;;;5194415;27;20569;-80
2023/12/19 08:34:21;;;;;;;10.00;8.90;;;7.40;1.00;;;;;;5194234;27;20463;-81
2023/12/19 08:36:50;;;;;;;11.50;9.17;;;7.50;1.00;;;;;;5173690;27;20446;-79
2023/12/19 08:39:18;;;;;;;10.70;9.57;;;7.50;1.00;;;;;;5199178;27;20453;-81
2023/12/19 08:41:47;;;;;;;11.73;9.17;;;7.50;1.00;;;;;;5194380;27;21087;-80
2023/12/19 08:44:15;;;;;;;8.87;8.00;;;7.50;1.00;;;;;;5190659;27;20465;-78
2023/12/19 08:46:44;;;;;;;10.93;9.80;;;7.50;1.00;;;;;;5190805;27;20462;-78
2023/12/19 08:49:11;;;;;;;9.10;8.20;;;7.50;1.00;;;;;;5170708;27;20501;-80
2023/12/19 08:51:47;;;;;;;11.37;10.23;;;7.60;1.00;;;;;;5193111;27;21431;-80
2023/12/19 08:54:18;;;;;;;9.03;8.10;;;7.60;1.00;;;;;;5173504;27;20457;-78
2023/12/19 08:56:45;;;;;;;17.63;10.95;;;7.50;1.00;;;;;;5193440;27;20483;-77
2023/12/19 08:59:12;;;;;;;11.80;10.33;;;7.40;1.00;;;;;;5191389;27;20715;-78
2023/12/19 09:01:41;;;;;;;10.27;9.17;;;7.40;1.00;;;;;;5171347;27;20470;-78
2023/12/19 09:04:17;;;;;;;11.53;10.30;;;7.40;1.00;;;;;;5188835;27;21297;-78
2023/12/19 09:06:45;;;;;;;11.13;10.00;;;7.40;1.00;;;;;;5191301;27;21124;-79
2023/12/19 09:09:12;;;;;;;10.67;9.57;;;7.40;1.00;;;;;;5190866;27;20476;-78
2023/12/19 09:11:41;;;;;;;11.83;10.67;;;7.40;1.00;;;;;;5190048;27;20473;-79
2023/12/19 09:14:11;;;;;;;10.63;9.47;;;7.40;1.00;;;;;;5187974;27;20480;-77
2023/12/19 09:16:38;;;;;;;13.10;9.27;;;7.40;1.00;;;;;;5189077;27;20485;-78
2023/12/19 09:19:06;;;;;;;10.90;9.80;;;7.40;1.00;;;;;;5187149;27;20987;-80
2023/12/19 09:21:33;;;;;;;11.60;9.20;;;7.40;1.00;;;;;;5188735;27;20546;-77
2023/12/19 09:24:03;;;;;;;17.50;11.20;;;7.40;1.00;;;;;;5185680;27;20435;-77
2023/12/19 09:26:31;;;;;;;11.03;9.80;;;7.40;1.00;;;;;;5186511;27;20474;-77
2023/12/19 09:29:00;;;;;;;10.63;9.53;;;7.50;1.00;;;;;;5169232;27;20457;-79
2023/12/19 09:31:27;;;;;;;9.97;9.07;;;7.50;1.00;;;;;;5189449;27;20434;-77
2023/12/19 09:33:54;;;;;;;17.63;11.10;;;7.50;1.00;;;;;;5186433;27;20533;-79
2023/12/19 09:36:24;;;;;;;12.60;11.27;;;7.50;1.00;;;;;;5189217;27;20578;-77
2023/12/19 09:38:52;;;;;;;12.50;10.60;;;7.50;1.00;;;;;;5188541;27;20477;-76
2023/12/19 09:41:21;;;;;;;13.13;10.00;;;7.50;1.00;;;;;;5191521;27;20547;-78
2023/12/19 09:43:51;;;;;;;10.50;9.40;;;7.60;1.00;;;;;;5194866;27;20934;-78
2023/12/19 09:46:19;;;;;;;12.83;10.47;;;7.60;1.00;;;;;;5191312;27;20555;-77
2023/12/19 09:48:50;;;;;;;10.47;9.43;;;7.60;1.00;;;;;;5194399;27;20451;-78
2023/12/19 09:51:27;;;;;;;12.57;11.20;;;7.60;1.00;;;;;;5190681;27;20504;-77
2023/12/19 09:53:55;;;;;;;12.40;10.80;;;7.40;1.00;;;;;;5189601;27;20446;-78
2023/12/19 09:56:23;;;;;;;12.13;9.65;;;7.40;1.00;;;;;;5197022;27;21237;-78
2023/12/19 09:58:52;;;;;;;12.80;10.47;;;7.30;1.00;;;;;;5191416;27;20258;-80
2023/12/19 10:01:23;;;;;;;11.10;9.90;;;7.20;1.00;;;;;;5196955;27;21224;-78
2023/12/19 10:03:55;;;;;;;11.55;10.23;;;7.20;1.00;;;;;;5196407;27;20511;-79
2023/12/19 10:06:22;;;;;;;11.85;10.13;;;7.20;1.00;;;;;;5194976;27;20793;-79
2023/12/19 10:08:52;;;;;;;11.77;10.60;;;7.10;1.00;;;;;;5191863;27;20238;-78
2023/12/19 10:11:21;;;;;;;13.05;10.93;;;7.10;1.00;;;;;;5180908;27;20464;-78
2023/12/19 10:13:50;;;;;;;12.10;11.00;;;7.00;1.00;;;;;;5193066;27;20261;-78
2023/12/19 10:16:19;;;;;;;12.82;11.50;;;6.90;1.00;;;;;;5191801;27;21191;-77
2023/12/19 10:18:55;;;;;;;15.90;10.87;;;6.90;1.00;;;;;;5189391;27;20230;-79
2023/12/19 10:21:24;;;;;;;17.30;13.45;;;6.90;1.00;;;;;;5189928;27;20487;-78
2023/12/19 10:23:53;;;;;;;12.80;11.50;;;6.90;1.00;;;;;;5189484;27;21148;-78
2023/12/19 10:26:30;;;;;;;13.05;11.77;;;6.90;1.00;;;;;;5194205;27;21162;-78
2023/12/19 10:28:58;;;;;;;14.90;12.10;;;6.90;1.00;;;;;;5198207;27;20231;-80
2023/12/19 10:31:25;;;;;;;14.10;12.60;;;6.90;1.00;;;;;;5197567;27;20524;-80
2023/12/19 10:33:55;;;;;;;15.45;11.55;;;6.90;1.00;;;;;;5187029;27;20559;-77
2023/12/19 10:36:25;;;;;;;18.48;15.45;;;6.90;1.00;;;;;;5183954;27;20337;-79
2023/12/19 10:38:59;;;;;;;16.52;13.02;;;6.90;1.00;;;;;;5181717;27;20241;-77
2023/12/19 10:41:27;;;;;;;16.65;11.80;;;6.80;1.00;;;;;;5188323;27;20283;-75
2023/12/19 10:43:56;;;;;;;20.30;17.90;;;6.70;1.00;;;;;;5187033;27;20294;-78
2023/12/19 10:46:26;;;;;;;13.40;12.07;;;6.70;1.00;;;;;;5189921;27;20265;-76
2023/12/19 10:48:55;;;;;;;15.70;13.57;;;6.80;1.00;;;;;;5192946;27;20248;-78
2023/12/19 10:51:30;;;;;;;18.05;15.30;;;6.80;1.00;;;;;;5192289;27;20490;-79
2023/12/19 10:54:09;;;;;;;16.03;12.67;;;6.80;1.00;;;;;;5173309;27;20237;-78
2023/12/19 10:56:47;;;;;;;13.57;12.13;;;6.90;1.00;;;;;;5172440;27;20465;-77
2023/12/19 10:59:30;;;;;;;15.30;11.97;;;6.90;1.00;;;;;;5189896;27;20441;-77
2023/12/19 11:02:03;;;;;;;13.33;11.37;;;6.80;1.00;;;;;;5185794;27;21722;-79
2023/12/19 11:04:40;;;;;;;13.85;12.27;;;6.80;1.00;;;;;;5191704;27;21272;-78
2023/12/19 11:07:13;;;;;;;15.87;13.13;;;6.70;1.00;;;;;;5187960;27;20241;-77
2023/12/19 11:09:43;;;;;;;12.73;11.43;;;6.70;1.00;;;;;;5168107;27;20461;-78
2023/12/19 11:12:13;;;;;;;15.03;13.30;;;6.80;1.00;;;;;;5187214;27;20657;-77
2023/12/19 11:14:42;;;;;;;14.60;13.07;;;6.80;1.00;;;;;;5194042;27;20589;-78
2023/12/19 11:17:16;;;;;;;14.30;12.73;;;6.80;1.00;;;;;;5146453;27;20468;-77
2023/12/19 11:19:50;;;;;;;14.60;12.83;;;6.70;1.00;;;;;;5190243;27;20479;-78
2023/12/19 11:22:26;;;;;;;14.97;12.40;;;6.80;1.00;;;;;;5188282;27;20460;-78
2023/12/19 11:25:01;;;;;;;17.13;13.30;;;6.90;1.00;;;;;;5189954;27;20450;-78
2023/12/19 11:27:36;;;;;;;14.80;13.00;;;6.90;1.00;;;;;;5187799;27;20539;-78
2023/12/19 11:30:04;;;;;;;14.60;13.10;;;6.90;1.00;;;;;;5189521;27;20314;-77
2023/12/19 11:32:40;;;;;;;15.57;13.93;;;6.90;1.00;;;;;;5190522;27;20243;-79
2023/12/19 11:35:14;;;;;;;14.40;12.63;;;6.90;1.00;;;;;;5193142;27;20478;-78
2023/12/19 11:37:44;;;;;;;16.13;12.17;;;6.90;1.00;;;;;;5192689;27;20761;-78
2023/12/19 11:40:37;;;;;;;14.23;12.00;;;7.00;1.00;;;;;;5172868;27;20434;-78
2023/12/19 11:43:04;;;;;;;16.30;14.60;;;6.90;1.00;;;;;;5194592;27;20585;-77
2023/12/19 11:45:40;;;;;;;14.70;12.20;;;7.00;1.00;;;;;;5196213;27;20318;-77
2023/12/19 11:48:36;;;;;;;17.63;14.15;;;6.90;1.00;;;;;;5176679;27;20227;-77
2023/12/19 11:51:07;;;;;;;16.70;12.67;;;6.90;1.00;;;;;;5197832;27;20751;-78
2023/12/19 11:53:34;;;;;;;16.20;13.07;;;6.90;1.00;;;;;;5192720;27;20507;-77
2023/12/19 11:56:08;;;;;;;15.05;12.70;;;7.00;1.00;;;;;;5197088;27;20487;-78
2023/12/19 11:58:36;;;;;;;16.65;14.88;;;7.00;1.00;;;;;;5197522;27;20299;-78
2023/12/19 12:01:04;;;;;;;15.63;13.97;;;6.90;1.00;;;;;;5192480;27;20235;-77
2023/12/19 12:03:33;;;;;;;16.90;13.60;;;6.90;1.00;;;;;;5180618;27;20564;-77
2023/12/19 12:06:03;;;;;;;15.27;12.82;;;7.00;1.00;;;;;;5197057;27;20245;-78
2023/12/19 12:08:31;;;;;;;16.90;13.65;;;7.00;1.00;;;;;;5195124;27;20324;-78
2023/12/19 12:11:11;;;;;;;19.90;14.80;;;7.00;1.00;;;;;;5191885;27;20225;-77
2023/12/19 12:13:38;;;;;;;17.63;15.73;;;7.00;1.00;;;;;;5189063;27;20254;-77
2023/12/19 12:16:07;;;;;;;17.33;14.43;;;7.00;1.00;;;;;;5192335;27;20539;-78
2023/12/19 12:18:34;;;;;;;15.75;13.98;;;7.10;1.00;;;;;;5150409;27;20451;-78
2023/12/19 12:21:09;;;;;;;15.82;13.88;;;7.10;1.00;;;;;;5172313;27;20324;-78
2023/12/19 12:23:37;;;;;;;16.03;14.37;;;7.10;1.00;;;;;;5171455;27;20322;-78
2023/12/19 12:26:06;;;;;;;16.92;14.30;;;7.10;1.00;;;;;;5172911;27;20520;-78
2023/12/19 12:28:34;;;;;;;16.13;13.90;;;7.10;1.00;;;;;;5172725;27;20238;-77
2023/12/19 12:31:02;;;;;;;17.90;14.30;;;7.10;1.00;;;;;;5174019;27;20746;-78
2023/12/19 12:33:36;;;;;;;17.20;15.13;;;7.10;1.00;;;;;;5172677;27;20434;-78
2023/12/19 12:36:10;;;;;;;15.88;14.18;;;7.10;1.00;;;;;;5169766;27;20240;-77
2023/12/19 12:38:40;;;;;;;18.30;14.63;;;7.10;1.00;;;;;;5169784;27;20311;-77
2023/12/19 12:41:07;;;;;;;15.90;14.10;;;7.10;1.00;;;;;;5173336;27;20569;-77
2023/12/19 12:43:39;;;;;;;18.33;15.53;;;7.10;1.00;;;;;;5171770;27;20622;-78
2023/12/19 12:46:11;;;;;;;17.10;15.30;;;7.20;1.00;;;;;;5171275;27;20487;-78
2023/12/19 12:48:44;;;;;;;18.60;15.20;;;7.20;1.00;;;;;;5169697;27;20581;-78
2023/12/19 12:51:11;;;;;;;18.07;16.10;;;7.20;1.00;;;;;;5173706;27;20235;-77
2023/12/19 12:53:40;;;;;;;19.30;15.70;;;7.20;1.00;;;;;;5168010;27;20448;-78
2023/12/19 12:56:11;;;;;;;16.63;14.57;;;7.10;1.00;;;;;;5171638;27;20454;-78
2023/12/19 12:58:38;;;;;;;17.23;15.10;;;7.10;1.00;;;;;;5169063;27;20457;-77
2023/12/19 13:01:06;;;;;;;17.93;14.97;;;7.10;1.00;;;;;;5168356;27;20455;-79
2023/12/19 13:03:33;;;;;;;18.10;14.90;;;7.10;1.00;;;;;;5170395;27;20464;-79
2023/12/19 13:06:00;;;;;;;19.75;16.35;;;7.10;1.00;;;;;;5172485;27;20422;-77
2023/12/19 13:08:31;;;;;;;17.27;15.30;;;7.20;1.00;;;;;;5169115;27;20262;-79